Overview Statistics Trail Chart Weather Telemetry Raw packets
 

This is the latest recevied weather packets stored in our database for station/object WX5II-11. If no packets are shown the sender has not sent any weather packets the latest 10 day(s).

<< 1 2 3 4 >>
Time Temp. Humidity Pressure Rain* Wind** Luminosity Snow
1788571558 30.56° C 58% 1003.3 hPa 0 mm - - -
1788532521 31.11° C 66% 1004.7 hPa 0 mm - - -
1788531321 31.11° C 66% 1004.4 hPa 0 mm - - -
1788526516 26.67° C 82% 1004 hPa 0 mm - - -
1788525314 25.56° C 83% 1003.7 hPa 0 mm - - -
1788519308 25.56° C 82% 1003.3 hPa 0 mm - - -
1788513902 26.67° C 79% 1003 hPa 0 mm - - -
1788507296 27.22° C 77% 1003 hPa 0 mm - - -
1788506096 27.22° C 77% 1003.3 hPa 0 mm - - -
1788504894 27.22° C 76% 1003.3 hPa 0 mm - - -
1788504294 27.78° C 76% 1003.3 hPa 0 mm - - -
1788503092 27.78° C 76% 1003.7 hPa 0 mm - - -
1788502493 27.78° C 76% 1003.7 hPa 0 mm - - -
1788500691 27.78° C 75% 1003.7 hPa 0 mm - - -
1788498888 27.78° C 74% 1003.7 hPa 0 mm - - -
1788498306 27.78° C 74% 1003.7 hPa 0 mm - - -
1788497688 27.78° C 74% 1003.7 hPa 0 mm - - -
1788497087 28.33° C 73% 1003.7 hPa 0 mm - - -
1788495886 28.33° C 73% 1003.7 hPa 0 mm - - -
1788492287 28.89° C 70% 1003.7 hPa 0 mm - - -
1788491681 28.89° C 69% 1003.7 hPa 0 mm - - -
1788490481 28.89° C 68% 1003.3 hPa 0 mm - - -
1788488678 29.44° C 66% 1003.3 hPa 0 mm - - -
1788488079 29.44° C 66% 1003 hPa 0 mm - - -
1788486877 29.44° C 65% 1002.7 hPa 0 mm - - -

* Rain latest hour (hover to see other rain measurements)
** Current wind speed in m/s (hover to see current wind gust speed)